Dole Colombia — C6QZ5 — position and weather

sailwx.info

Track history (hours):
 
Tides and Currents Weather Stations Pressure Air Temp Water Temp Dewpoint Dewpoint Depression Visibility Wind Speed Wind Dir Waves Ship Positions

Dole Colombia

Last reported at 2018-Jan-09 17:22 UTC. Time now 2018-Jan-20 15:16 UTC.
Position N 38°51' W 075°05'.
Warning: this ship's position is 10 days out of date.

Length 205 m; draft 7.7 m.

Type: Cargo ship. MMSI: 309403000.

Date/timePositionNaut miles runAvg speedWind from/ knotsBaromVisibWave heightAir tempDewpointWater temp
2018-Jan-09 17:22N 38°51' W 075°05'613.8
2018-Jan-09 16:54N 38°58' W 075°07'615.9
2018-Jan-09 16:30N 39°03' W 075°10'816.2
2018-Jan-09 16:00N 39°10' W 075°16'917.2
2018-Jan-09 15:30N 39°17' W 075°22'918.4
2018-Jan-09 15:00N 39°24' W 075°30'715.0
2018-Jan-09 14:30N 39°31' W 075°33'815.0
2018-Jan-09 14:00N 39°39' W 075°33'5 9.4
2018-Jan-09 13:30N 39°43' W 075°31'0 0.1
2018-Jan-09 13:00N 39°43' W 075°32'0 0.0
2018-Jan-09 12:30N 39°43' W 075°32'0 0.0
2018-Jan-09 12:00N 39°43' W 075°32'0 0.0
2018-Jan-09 11:31N 39°43' W 075°32'0 0.0
2018-Jan-09 11:01N 39°43' W 075°32'0 0.0
2018-Jan-09 10:30N 39°43' W 075°32'0 0.0
2018-Jan-09 10:01N 39°43' W 075°32'0 0.0
2018-Jan-09 09:30N 39°43' W 075°32'0 0.0
2018-Jan-09 09:00N 39°43' W 075°32'0 0.0
2018-Jan-09 08:30N 39°43' W 075°32'0 0.0
2018-Jan-09 08:00N 39°43' W 075°32'0 0.0
2018-Jan-09 07:31N 39°43' W 075°32'0 0.0
2018-Jan-09 07:01N 39°43' W 075°32'0 0.0
2018-Jan-09 06:30N 39°43' W 075°32'0 0.0
2018-Jan-09 06:00N 39°43' W 075°32'0 0.0
2018-Jan-09 05:30N 39°43' W 075°32'0 0.0
2018-Jan-09 05:00N 39°43' W 075°32'0 0.0
2018-Jan-09 04:30N 39°43' W 075°32'0 0.0
2018-Jan-09 04:01N 39°43' W 075°32'0 0.0
2018-Jan-09 03:30N 39°43' W 075°32'0 0.0
2018-Jan-09 03:00N 39°43' W 075°32'0 0.0
2018-Jan-09 02:30N 39°43' W 075°32'0 0.0
2018-Jan-09 02:00N 39°43' W 075°32'0 0.0
2018-Jan-09 01:30N 39°43' W 075°32'0 0.0
2018-Jan-09 01:00N 39°43' W 075°32'0 0.0
2018-Jan-09 00:30N 39°43' W 075°32'0 0.0
2018-Jan-09 00:00N 39°43' W 075°32'0 0.0
2018-Jan-08 23:30N 39°43' W 075°32'0 0.0
2018-Jan-08 23:00N 39°43' W 075°32'0 0.0
2018-Jan-08 22:30N 39°43' W 075°32'0 0.0
2018-Jan-08 22:00N 39°43' W 075°32'0 0.0
2018-Jan-08 21:30N 39°43' W 075°32'0 0.0
2018-Jan-08 21:00N 39°43' W 075°32'0 0.0
2018-Jan-08 20:30N 39°43' W 075°32'0 0.0
2018-Jan-08 20:00N 39°43' W 075°32'0 0.0
2018-Jan-08 19:30N 39°43' W 075°32'0 0.0
2018-Jan-08 19:00N 39°43' W 075°32'0 0.0
2018-Jan-08 18:30N 39°43' W 075°32'0 0.0
2018-Jan-08 18:00N 39°43' W 075°32'0 0.0
2018-Jan-08 17:30N 39°43' W 075°32'0 0.2
2018-Jan-08 17:00N 39°43' W 075°31'1 2.0
2018-Jan-08 16:30N 39°42' W 075°31'3 5.8
2018-Jan-08 16:00N 39°40' W 075°32'612.0
2018-Jan-08 15:31N 39°34' W 075°33'713.2
2018-Jan-08 15:00N 39°27' W 075°33'714.3
2018-Jan-08 14:30N 39°22' W 075°27'714.8
2018-Jan-08 14:01N 39°16' W 075°21'715.0
2018-Jan-08 13:30N 39°10' W 075°16'815.3
2018-Jan-08 13:00N 39°04' W 075°10'815.1
2018-Jan-08 12:30N 38°57' W 075°06'1011.4
2018-Jan-08 11:35N 38°47' W 075°01'1 8.3
2018-Jan-08 11:29N 38°46' W 075°00'5 7.0
2018-Jan-08 10:43N 38°43' W 074°55'3 7.8
2018-Jan-08 10:22N 38°41' W 074°53'  
Track history (hours):
 
Tides and Currents Weather Stations Pressure Air Temp Water Temp Dewpoint Dewpoint Depression Visibility Wind Speed Wind Dir Waves Ship Positions

Dole Colombia

Last reported at 2018-Jan-09 17:22 UTC. Time now 2018-Jan-20 15:16 UTC.
Position N 38°51' W 075°05'.
Warning: this ship's position is 10 days out of date.

Length 205 m; draft 7.7 m.

Type: Cargo ship. MMSI: 309403000.

Date/timePositionNaut miles runAvg speedWind from/ knotsBaromVisibWave heightAir tempDewpointWater temp
2018-Jan-09 17:22N 38°51' W 075°05'613.8
2018-Jan-09 16:54N 38°58' W 075°07'615.9
2018-Jan-09 16:30N 39°03' W 075°10'816.2
2018-Jan-09 16:00N 39°10' W 075°16'917.2
2018-Jan-09 15:30N 39°17' W 075°22'918.4
2018-Jan-09 15:00N 39°24' W 075°30'715.0
2018-Jan-09 14:30N 39°31' W 075°33'815.0
2018-Jan-09 14:00N 39°39' W 075°33'5 9.4
2018-Jan-09 13:30N 39°43' W 075°31'0 0.1
2018-Jan-09 13:00N 39°43' W 075°32'0 0.0
2018-Jan-09 12:30N 39°43' W 075°32'0 0.0
2018-Jan-09 12:00N 39°43' W 075°32'0 0.0
2018-Jan-09 11:31N 39°43' W 075°32'0 0.0
2018-Jan-09 11:01N 39°43' W 075°32'0 0.0
2018-Jan-09 10:30N 39°43' W 075°32'0 0.0
2018-Jan-09 10:01N 39°43' W 075°32'0 0.0
2018-Jan-09 09:30N 39°43' W 075°32'0 0.0
2018-Jan-09 09:00N 39°43' W 075°32'0 0.0
2018-Jan-09 08:30N 39°43' W 075°32'0 0.0
2018-Jan-09 08:00N 39°43' W 075°32'0 0.0
2018-Jan-09 07:31N 39°43' W 075°32'0 0.0
2018-Jan-09 07:01N 39°43' W 075°32'0 0.0
2018-Jan-09 06:30N 39°43' W 075°32'0 0.0
2018-Jan-09 06:00N 39°43' W 075°32'0 0.0
2018-Jan-09 05:30N 39°43' W 075°32'0 0.0
2018-Jan-09 05:00N 39°43' W 075°32'0 0.0
2018-Jan-09 04:30N 39°43' W 075°32'0 0.0
2018-Jan-09 04:01N 39°43' W 075°32'0 0.0
2018-Jan-09 03:30N 39°43' W 075°32'0 0.0
2018-Jan-09 03:00N 39°43' W 075°32'0 0.0
2018-Jan-09 02:30N 39°43' W 075°32'0 0.0
2018-Jan-09 02:00N 39°43' W 075°32'0 0.0
2018-Jan-09 01:30N 39°43' W 075°32'0 0.0
2018-Jan-09 01:00N 39°43' W 075°32'0 0.0
2018-Jan-09 00:30N 39°43' W 075°32'0 0.0
2018-Jan-09 00:00N 39°43' W 075°32'0 0.0
2018-Jan-08 23:30N 39°43' W 075°32'0 0.0
2018-Jan-08 23:00N 39°43' W 075°32'0 0.0
2018-Jan-08 22:30N 39°43' W 075°32'0 0.0
2018-Jan-08 22:00N 39°43' W 075°32'0 0.0
2018-Jan-08 21:30N 39°43' W 075°32'0 0.0
2018-Jan-08 21:00N 39°43' W 075°32'0 0.0
2018-Jan-08 20:30N 39°43' W 075°32'0 0.0
2018-Jan-08 20:00N 39°43' W 075°32'0 0.0
2018-Jan-08 19:30N 39°43' W 075°32'0 0.0
2018-Jan-08 19:00N 39°43' W 075°32'0 0.0
2018-Jan-08 18:30N 39°43' W 075°32'0 0.0
2018-Jan-08 18:00N 39°43' W 075°32'0 0.0
2018-Jan-08 17:30N 39°43' W 075°32'0 0.2
2018-Jan-08 17:00N 39°43' W 075°31'1 2.0
2018-Jan-08 16:30N 39°42' W 075°31'3 5.8
2018-Jan-08 16:00N 39°40' W 075°32'612.0
2018-Jan-08 15:31N 39°34' W 075°33'713.2
2018-Jan-08 15:00N 39°27' W 075°33'714.3
2018-Jan-08 14:30N 39°22' W 075°27'714.8
2018-Jan-08 14:01N 39°16' W 075°21'715.0
2018-Jan-08 13:30N 39°10' W 075°16'815.3
2018-Jan-08 13:00N 39°04' W 075°10'815.1
2018-Jan-08 12:30N 38°57' W 075°06'1011.4
2018-Jan-08 11:35N 38°47' W 075°01'1 8.3
2018-Jan-08 11:29N 38°46' W 075°00'5 7.0
2018-Jan-08 10:43N 38°43' W 074°55'3 7.8
2018-Jan-08 10:22N 38°41' W 074°53'  

Dump ship's entire track history